Time;durP1;ratioP1;P1;durP2;ratioP2;P2;SDS_P1;SDS_P2;PMS_P1;PMS_P2;Temp;Humidity;BMP_temperature;BMP_pressure;BME280_temperature;BME280_humidity;BME280_pressure;Samples;Min_cycle;Max_cycle;Signal;HPM_P1;HPM_P2
2020/12/19 00:00:00;;;;;;;41.33;6.97;;;11.10;99.90;;;;;;5069784;28;20044;-45
2020/12/19 00:02:25;;;;;;;28.25;5.93;;;11.10;99.90;;;;;;5069310;28;20032;-44
2020/12/19 00:04:51;;;;;;;20.35;5.35;;;11.10;99.90;;;;;;5069386;28;20043;-44
2020/12/19 00:07:20;;;;;;;32.13;6.43;;;11.10;99.90;;;;;;5069759;28;20579;-46
2020/12/19 00:09:46;;;;;;;41.88;6.75;;;11.20;99.90;;;;;;5051587;28;20035;-45
2020/12/19 00:12:12;;;;;;;36.25;6.70;;;11.20;99.90;;;;;;5069284;28;20482;-45
2020/12/19 00:14:37;;;;;;;39.42;7.32;;;11.20;99.90;;;;;;5069353;28;20086;-46
2020/12/19 00:17:03;;;;;;;31.98;6.90;;;11.20;99.90;;;;;;5069101;28;20036;-44
2020/12/19 00:19:29;;;;;;;28.38;8.57;;;11.20;99.90;;;;;;5069305;28;20364;-45
2020/12/19 00:21:54;;;;;;;30.02;5.65;;;11.10;99.90;;;;;;5069473;28;20063;-45
2020/12/19 00:24:20;;;;;;;40.50;7.15;;;11.10;99.90;;;;;;5069302;28;20172;-44
2020/12/19 00:26:46;;;;;;;35.20;6.80;;;11.10;99.90;;;;;;5051116;28;20024;-45
2020/12/19 00:29:13;;;;;;;40.28;7.75;;;11.10;99.90;;;;;;5054014;28;20147;-45
2020/12/19 00:31:39;;;;;;;32.40;7.32;;;11.10;99.90;;;;;;5071661;28;20032;-45
2020/12/19 00:34:08;;;;;;;33.65;6.95;;;11.20;99.90;;;;;;5069293;28;20025;-44
2020/12/19 00:36:34;;;;;;;37.05;6.50;;;11.20;99.90;;;;;;5069156;28;20117;-46
2020/12/19 00:39:00;;;;;;;28.77;5.55;;;11.20;99.90;;;;;;5084669;28;20024;-44
2020/12/19 00:41:32;;;;;;;30.00;6.70;;;11.30;99.90;;;;;;5109664;28;20094;-44
2020/12/19 00:43:58;;;;;;;36.42;6.43;;;11.30;99.90;;;;;;5080265;28;20039;-44
2020/12/19 00:46:24;;;;;;;33.28;7.40;;;11.30;99.90;;;;;;5071317;28;20032;-45
2020/12/19 00:48:49;;;;;;;30.65;6.28;;;11.30;99.90;;;;;;5068544;28;20036;-44
2020/12/19 00:51:22;;;;;;;47.10;5.85;;;11.30;99.90;;;;;;5050607;28;20024;-44
2020/12/19 00:53:49;;;;;;;30.63;5.40;;;11.30;99.90;;;;;;5068711;28;20033;-44
2020/12/19 00:56:20;;;;;;;36.03;6.03;;;11.30;99.90;;;;;;5068440;28;20116;-45
2020/12/19 00:58:46;;;;;;;37.47;6.13;;;11.40;99.90;;;;;;5072475;28;20113;-44
2020/12/19 01:01:13;;;;;;;32.65;7.68;;;11.40;99.90;;;;;;5085221;28;20728;-45
2020/12/19 01:03:39;;;;;;;33.17;6.80;;;11.40;99.90;;;;;;5080037;28;20032;-45
2020/12/19 01:06:04;;;;;;;33.97;6.47;;;11.50;99.90;;;;;;5070906;28;20035;-45
2020/12/19 01:08:30;;;;;;;31.38;6.43;;;11.40;99.90;;;;;;5076077;28;20383;-45
2020/12/19 01:10:56;;;;;;;33.40;6.90;;;11.40;99.90;;;;;;5068307;28;20423;-46
2020/12/19 01:13:22;;;;;;;45.90;8.18;;;11.40;99.90;;;;;;5067826;28;20174;-45
2020/12/19 01:15:47;;;;;;;34.95;6.43;;;11.40;99.90;;;;;;5067601;28;20479;-46
2020/12/19 01:18:18;;;;;;;31.70;5.88;;;11.40;99.90;;;;;;5067754;28;20651;-46
2020/12/19 01:20:44;;;;;;;30.38;6.20;;;11.40;99.90;;;;;;5050072;28;20079;-46
2020/12/19 01:23:10;;;;;;;34.85;6.05;;;11.30;99.90;;;;;;5067749;28;20198;-45
2020/12/19 01:25:35;;;;;;;19.05;5.65;;;11.40;99.90;;;;;;5033295;28;20638;-44
2020/12/19 01:28:01;;;;;;;31.05;6.00;;;11.40;99.90;;;;;;5074403;28;20025;-44
2020/12/19 01:30:27;;;;;;;30.63;5.95;;;11.40;99.90;;;;;;5067866;28;20041;-45
2020/12/19 01:32:53;;;;;;;45.33;6.50;;;11.30;99.90;;;;;;5068074;28;20025;-46
2020/12/19 01:35:18;;;;;;;43.10;6.78;;;11.30;99.90;;;;;;5068148;28;20079;-45
2020/12/19 01:37:44;;;;;;;35.08;7.47;;;11.40;99.90;;;;;;5080767;28;20414;-45
2020/12/19 01:40:10;;;;;;;21.60;5.43;;;11.40;99.90;;;;;;5046342;28;20119;-47
2020/12/19 01:42:36;;;;;;;37.83;5.88;;;11.40;99.90;;;;;;5076142;28;20035;-44
2020/12/19 01:45:03;;;;;;;39.33;6.35;;;11.40;99.90;;;;;;5078893;28;20036;-45
2020/12/19 01:47:31;;;;;;;45.40;5.72;;;11.40;99.90;;;;;;5082837;28;20383;-46
2020/12/19 01:49:58;;;;;;;30.13;6.25;;;11.50;99.90;;;;;;5068353;28;20036;-46
2020/12/19 01:52:27;;;;;;;36.20;6.22;;;11.50;99.90;;;;;;5107659;28;20038;-46
2020/12/19 01:54:53;;;;;;;29.58;6.47;;;11.50;99.90;;;;;;5097009;28;20055;-45
2020/12/19 01:57:21;;;;;;;29.20;6.07;;;11.40;99.90;;;;;;5104462;28;20042;-44
2020/12/19 01:59:46;;;;;;;22.80;5.43;;;11.40;99.90;;;;;;5070940;28;20116;-45
2020/12/19 02:02:13;;;;;;;35.65;8.27;;;11.40;99.90;;;;;;5067359;28;20113;-44
2020/12/19 02:04:42;;;;;;;28.35;5.72;;;11.40;99.90;;;;;;5067019;28;20040;-45
2020/12/19 02:07:07;;;;;;;25.00;5.55;;;11.40;99.90;;;;;;5067158;28;20792;-44
2020/12/19 02:09:38;;;;;;;20.40;5.28;;;11.40;99.90;;;;;;5071722;28;20036;-45
2020/12/19 02:12:05;;;;;;;23.85;5.50;;;11.50;99.90;;;;;;5086963;28;20082;-46
2020/12/19 02:14:31;;;;;;;29.83;6.35;;;11.50;99.90;;;;;;5071946;28;20025;-45
2020/12/19 02:17:08;;;;;;;24.55;5.97;;;11.40;99.90;;;;;;5067569;28;20040;-45
2020/12/19 02:19:34;;;;;;;22.73;5.63;;;11.50;99.90;;;;;;5067398;28;20029;-45
2020/12/19 02:22:01;;;;;;;33.40;6.32;;;11.40;99.90;;;;;;5065890;28;20600;-45
2020/12/19 02:24:27;;;;;;;32.58;6.45;;;11.40;99.90;;;;;;5066967;28;20075;-44
2020/12/19 02:26:55;;;;;;;31.70;5.68;;;11.40;99.90;;;;;;5070091;28;20072;-45
2020/12/19 02:29:25;;;;;;;41.55;6.97;;;11.40;99.90;;;;;;5074379;28;20032;-45
2020/12/19 02:31:51;;;;;;;35.17;7.07;;;11.40;99.90;;;;;;5075500;28;20039;-46
2020/12/19 02:34:17;;;;;;;25.63;5.57;;;11.40;99.90;;;;;;5092127;28;20529;-44
2020/12/19 02:36:43;;;;;;;23.65;5.63;;;11.40;99.90;;;;;;5088411;28;20536;-45
2020/12/19 02:39:09;;;;;;;24.00;6.15;;;11.40;99.90;;;;;;5071569;28;20036;-44
2020/12/19 02:41:43;;;;;;;34.83;6.35;;;11.40;99.90;;;;;;5070818;28;20418;-47
2020/12/19 02:44:11;;;;;;;23.30;6.45;;;11.40;99.90;;;;;;5071132;28;20056;-45
2020/12/19 02:46:37;;;;;;;24.73;6.75;;;11.30;99.90;;;;;;5052934;28;20375;-45
2020/12/19 02:49:03;;;;;;;41.95;7.47;;;11.40;99.90;;;;;;5071696;28;20052;-44
2020/12/19 02:51:29;;;;;;;34.55;7.55;;;11.30;99.90;;;;;;5074695;28;20036;-45
2020/12/19 02:53:55;;;;;;;28.45;6.15;;;11.30;99.90;;;;;;5091726;28;20028;-44
2020/12/19 02:56:20;;;;;;;39.05;6.28;;;11.30;99.90;;;;;;5091583;28;20044;-44
2020/12/19 02:58:46;;;;;;;29.75;6.20;;;11.20;99.90;;;;;;5091629;28;20032;-44
2020/12/19 03:01:12;;;;;;;31.40;6.20;;;11.30;99.90;;;;;;5089781;28;20504;-46
2020/12/19 03:03:37;;;;;;;33.67;6.43;;;11.30;99.90;;;;;;5092535;28;20024;-44
2020/12/19 03:06:03;;;;;;;27.88;5.47;;;11.40;99.90;;;;;;5092188;28;20040;-44
2020/12/19 03:08:29;;;;;;;30.83;6.03;;;11.40;99.90;;;;;;5092551;28;20354;-46
2020/12/19 03:10:55;;;;;;;26.23;5.45;;;11.50;99.90;;;;;;5083062;28;20165;-45
2020/12/19 03:13:20;;;;;;;20.17;5.97;;;11.50;99.90;;;;;;5092620;28;20035;-46
2020/12/19 03:15:46;;;;;;;32.25;4.97;;;11.60;99.90;;;;;;5091948;28;20046;-44
2020/12/19 03:18:12;;;;;;;31.40;6.13;;;11.60;99.90;;;;;;5092355;28;20027;-46
2020/12/19 03:20:38;;;;;;;33.40;6.03;;;11.60;99.90;;;;;;5091063;28;20035;-44
2020/12/19 03:23:03;;;;;;;27.73;5.80;;;11.60;99.90;;;;;;5074233;28;20044;-47
2020/12/19 03:25:29;;;;;;;28.60;5.97;;;11.60;99.90;;;;;;5071905;28;20127;-47
2020/12/19 03:27:55;;;;;;;32.88;5.78;;;11.60;99.90;;;;;;5071910;28;20112;-47
2020/12/19 03:30:24;;;;;;;32.33;6.40;;;11.70;99.90;;;;;;5071829;28;20402;-45
2020/12/19 03:32:53;;;;;;;28.60;5.95;;;11.70;99.90;;;;;;5071945;28;20104;-45
2020/12/19 03:35:20;;;;;;;24.95;5.40;;;11.60;99.90;;;;;;5071228;28;20040;-45
2020/12/19 03:37:46;;;;;;;29.77;6.10;;;11.60;99.90;;;;;;5070823;28;20064;-46
2020/12/19 03:40:11;;;;;;;26.23;6.15;;;11.70;99.90;;;;;;5053200;28;20033;-46
2020/12/19 03:42:37;;;;;;;28.73;6.15;;;11.70;99.90;;;;;;5071489;28;20073;-46
2020/12/19 03:45:05;;;;;;;29.85;6.10;;;11.70;99.90;;;;;;5071665;28;20032;-45
2020/12/19 03:47:30;;;;;;;26.38;6.53;;;11.70;99.90;;;;;;5071377;28;20036;-44
2020/12/19 03:49:56;;;;;;;30.60;6.82;;;11.70;99.90;;;;;;5071478;28;20033;-45
2020/12/19 03:52:22;;;;;;;36.10;7.32;;;11.70;99.90;;;;;;5070946;28;20086;-44
2020/12/19 03:54:47;;;;;;;20.52;5.90;;;11.70;99.90;;;;;;5070807;28;20032;-45
2020/12/19 03:57:13;;;;;;;22.90;5.93;;;11.70;99.90;;;;;;5070731;28;20079;-46
2020/12/19 03:59:39;;;;;;;25.30;6.15;;;11.70;99.90;;;;;;5070720;28;20031;-46
2020/12/19 04:02:04;;;;;;;41.22;6.65;;;11.70;99.90;;;;;;5071039;28;20370;-45
2020/12/19 04:04:30;;;;;;;31.15;5.60;;;11.70;99.90;;;;;;5071287;28;20769;-46
2020/12/19 04:06:56;;;;;;;26.67;5.53;;;11.70;99.90;;;;;;5070583;28;20036;-46
2020/12/19 04:09:21;;;;;;;25.92;5.07;;;11.70;99.90;;;;;;5070760;28;20064;-45
2020/12/19 04:11:47;;;;;;;30.30;6.05;;;11.70;99.90;;;;;;5070903;28;20069;-45
2020/12/19 04:14:12;;;;;;;29.95;6.32;;;11.70;99.90;;;;;;5070757;28;20036;-45
2020/12/19 04:16:38;;;;;;;24.35;5.45;;;11.70;99.90;;;;;;5070935;28;20044;-45
2020/12/19 04:19:04;;;;;;;29.05;5.65;;;11.70;99.90;;;;;;5071058;28;20132;-45
2020/12/19 04:21:29;;;;;;;33.58;5.90;;;11.70;99.90;;;;;;5070940;28;20059;-45
2020/12/19 04:23:55;;;;;;;23.45;6.28;;;11.60;99.90;;;;;;5071086;28;20061;-45
2020/12/19 04:26:21;;;;;;;28.55;7.28;;;11.60;99.90;;;;;;5072362;28;20477;-45
2020/12/19 04:28:46;;;;;;;31.50;5.68;;;11.60;99.90;;;;;;5070801;28;20082;-45
2020/12/19 04:31:12;;;;;;;25.55;5.70;;;11.60;99.90;;;;;;5070628;28;20473;-44
2020/12/19 04:33:38;;;;;;;25.65;5.97;;;11.50;99.90;;;;;;5070731;28;20048;-45
2020/12/19 04:36:04;;;;;;;32.40;6.07;;;11.40;99.90;;;;;;5070599;28;20046;-44
2020/12/19 04:38:30;;;;;;;26.20;6.40;;;11.40;99.90;;;;;;5070137;28;20077;-45
2020/12/19 04:40:59;;;;;;;28.88;6.10;;;11.40;99.90;;;;;;5070455;28;20060;-45
2020/12/19 04:43:26;;;;;;;28.88;6.32;;;11.30;99.90;;;;;;5070016;28;20115;-46
2020/12/19 04:45:55;;;;;;;37.28;7.10;;;11.30;99.90;;;;;;5052551;28;20035;-47
2020/12/19 04:48:24;;;;;;;40.42;7.07;;;11.30;99.90;;;;;;5072604;28;20036;-46
2020/12/19 04:50:50;;;;;;;41.22;7.30;;;11.30;99.90;;;;;;5070306;28;20032;-45
2020/12/19 04:53:21;;;;;;;28.95;7.25;;;11.30;99.90;;;;;;5069935;28;20028;-45
2020/12/19 04:55:48;;;;;;;38.65;7.90;;;11.20;99.90;;;;;;5070077;28;20386;-45
2020/12/19 04:58:19;;;;;;;47.97;9.10;;;11.20;99.90;;;;;;5070989;28;20029;-45
2020/12/19 05:00:45;;;;;;;34.95;6.97;;;11.10;99.90;;;;;;5090207;28;20598;-45
2020/12/19 05:03:11;;;;;;;33.35;6.43;;;11.00;99.90;;;;;;5090370;28;20031;-48
2020/12/19 05:05:41;;;;;;;34.50;6.78;;;11.00;99.90;;;;;;5090034;28;20028;-47
2020/12/19 05:08:06;;;;;;;40.35;8.35;;;11.00;99.90;;;;;;5090110;28;20524;-45
2020/12/19 05:10:32;;;;;;;44.83;9.13;;;10.90;99.90;;;;;;5090380;28;20035;-46
2020/12/19 05:12:58;;;;;;;36.70;6.65;;;10.90;99.90;;;;;;5090394;28;20034;-47
2020/12/19 05:15:24;;;;;;;30.20;6.32;;;10.90;99.90;;;;;;5071663;28;20025;-49
2020/12/19 05:17:54;;;;;;;50.85;9.13;;;10.90;99.90;;;;;;5090240;28;20035;-46
2020/12/19 05:20:21;;;;;;;35.05;7.53;;;10.90;99.90;;;;;;5089874;28;20035;-47
2020/12/19 05:22:57;;;;;;;40.03;8.60;;;10.90;99.90;;;;;;5089782;28;20558;-51
2020/12/19 05:25:25;;;;;;;42.13;7.22;;;10.90;99.90;;;;;;5089600;28;20044;-48
2020/12/19 05:27:51;;;;;;;36.55;7.30;;;10.90;99.90;;;;;;5089826;28;20396;-48
2020/12/19 05:30:18;;;;;;;31.92;7.72;;;10.90;99.90;;;;;;5089808;28;20028;-48
2020/12/19 05:32:52;;;;;;;40.85;8.63;;;10.80;99.90;;;;;;5089498;28;20056;-49
2020/12/19 05:35:20;;;;;;;40.15;8.93;;;10.80;99.90;;;;;;5089778;28;20039;-49
2020/12/19 05:38:05;;;;;;;39.70;7.47;;;10.70;99.90;;;;;;5089174;28;20062;-48
2020/12/19 05:40:33;;;;;;;40.10;8.38;;;10.70;99.90;;;;;;5089679;28;20520;-50
2020/12/19 05:42:59;;;;;;;42.40;8.30;;;10.80;99.90;;;;;;5089383;28;20070;-49
2020/12/19 05:45:26;;;;;;;38.78;9.10;;;10.80;99.90;;;;;;5089498;28;20059;-49
2020/12/19 05:47:52;;;;;;;47.45;8.95;;;10.80;99.90;;;;;;5082273;28;20070;-49
2020/12/19 05:50:19;;;;;;;51.90;9.65;;;10.70;99.90;;;;;;5069017;28;20036;-48
2020/12/19 05:52:45;;;;;;;37.22;8.77;;;10.70;99.90;;;;;;5069063;28;20720;-50
2020/12/19 05:55:14;;;;;;;40.60;8.52;;;10.70;99.90;;;;;;5069504;28;20064;-49
2020/12/19 05:57:40;;;;;;;62.17;9.75;;;10.70;99.90;;;;;;5068678;28;20036;-52
2020/12/19 06:00:17;;;;;;;46.78;9.20;;;10.70;99.90;;;;;;5070082;28;20024;-51
2020/12/19 06:02:44;;;;;;;38.00;7.40;;;10.70;99.90;;;;;;5071381;28;20698;-49
2020/12/19 06:05:11;;;;;;;62.88;11.50;;;10.70;99.90;;;;;;5074779;28;20462;-52
2020/12/19 06:07:39;;;;;;;53.13;10.10;;;10.70;99.90;;;;;;5056375;28;20031;-53
2020/12/19 06:10:10;;;;;;;57.80;10.15;;;10.70;99.90;;;;;;5074285;28;20067;-50
2020/12/19 06:12:51;;;;;;;64.38;10.85;;;10.70;99.90;;;;;;5074446;28;20040;-50
2020/12/19 06:15:34;;;;;;;70.20;9.85;;;10.70;99.90;;;;;;5074542;28;20478;-50
2020/12/19 06:18:21;;;;;;;59.80;11.40;;;10.70;99.90;;;;;;5074438;28;20033;-53
2020/12/19 06:20:47;;;;;;;63.15;10.65;;;10.60;99.90;;;;;;5076523;28;20648;-54
2020/12/19 06:23:17;;;;;;;57.13;10.63;;;10.60;99.90;;;;;;5074372;28;20061;-53
2020/12/19 06:25:45;;;;;;;56.70;10.50;;;10.60;99.90;;;;;;5074272;28;20040;-54
2020/12/19 06:28:11;;;;;;;47.90;9.88;;;10.60;99.90;;;;;;5074401;28;20568;-54
2020/12/19 06:30:37;;;;;;;66.78;11.63;;;10.60;99.90;;;;;;5074652;28;20355;-54
2020/12/19 06:33:14;;;;;;;55.40;10.48;;;10.70;99.90;;;;;;5074650;28;20041;-53
2020/12/19 06:35:48;;;;;;;54.38;10.73;;;10.60;99.90;;;;;;5074341;28;20148;-53
2020/12/19 06:38:14;;;;;;;;;;;10.60;99.90;;;;;;5074237;28;20038;-53
2020/12/19 06:40:39;;;;;;;60.60;11.80;;;10.60;99.90;;;;;;5076836;28;19913;-53
2020/12/19 06:43:13;;;;;;;60.13;12.63;;;10.70;99.90;;;;;;5073820;28;20028;-55
2020/12/19 06:45:39;;;;;;;62.17;10.40;;;10.60;99.90;;;;;;5073702;28;20025;-54
2020/12/19 06:48:29;;;;;;;57.53;10.27;;;10.60;99.90;;;;;;5074328;28;20054;-55
2020/12/19 06:50:57;;;;;;;53.08;11.27;;;10.70;99.90;;;;;;5073685;28;20455;-55
2020/12/19 06:53:23;;;;;;;73.22;11.10;;;10.70;99.90;;;;;;5073609;28;20047;-55
2020/12/19 06:55:49;;;;;;;52.58;11.48;;;10.70;99.90;;;;;;5073946;28;20044;-55
2020/12/19 06:58:31;;;;;;;59.33;11.65;;;10.70;99.90;;;;;;5073584;28;20458;-54
2020/12/19 07:00:57;;;;;;;51.63;11.25;;;10.70;99.90;;;;;;5056300;28;20119;-53
2020/12/19 07:03:49;;;;;;;73.57;11.70;;;10.70;99.90;;;;;;5062941;28;20039;-54
2020/12/19 07:06:15;;;;;;;58.47;10.73;;;10.80;99.90;;;;;;5084225;28;20039;-55
2020/12/19 07:08:42;;;;;;;53.17;13.25;;;10.80;99.90;;;;;;5082044;28;20056;-56
2020/12/19 07:11:34;;;;;;;42.63;9.48;;;10.90;99.90;;;;;;5075533;28;20058;-54
2020/12/19 07:14:00;;;;;;;41.97;9.02;;;10.90;99.90;;;;;;5084924;28;20035;-54
2020/12/19 07:16:49;;;;;;;43.47;8.55;;;10.90;99.90;;;;;;5082667;28;20044;-55
2020/12/19 07:19:16;;;;;;;50.97;9.23;;;10.90;99.90;;;;;;5078594;28;20516;-54
2020/12/19 07:21:43;;;;;;;44.47;9.07;;;10.90;99.90;;;;;;5083081;28;20136;-52
2020/12/19 07:24:09;;;;;;;35.53;8.95;;;10.90;99.90;;;;;;5077787;28;20071;-54
2020/12/19 07:26:34;;;;;;;30.48;9.30;;;10.90;99.90;;;;;;5089590;28;20445;-57
2020/12/19 07:29:00;;;;;;;44.10;9.93;;;10.90;99.90;;;;;;5081167;28;20032;-55
2020/12/19 07:31:28;;;;;;;37.55;8.13;;;11.00;99.90;;;;;;5072093;28;20093;-54
2020/12/19 07:33:54;;;;;;;49.03;10.40;;;10.90;99.90;;;;;;5059293;28;20374;-53
2020/12/19 07:36:19;;;;;;;41.67;8.45;;;11.00;99.90;;;;;;5090080;28;20048;-55
2020/12/19 07:38:45;;;;;;;42.20;9.05;;;11.00;99.90;;;;;;5079284;28;20040;-54
2020/12/19 07:41:11;;;;;;;44.72;9.23;;;11.00;99.90;;;;;;5089315;28;20039;-52
2020/12/19 07:43:37;;;;;;;49.08;8.85;;;11.00;99.90;;;;;;5088477;28;20036;-53
2020/12/19 07:46:02;;;;;;;51.65;9.05;;;11.10;99.90;;;;;;5090413;28;20036;-50
2020/12/19 07:48:28;;;;;;;39.42;9.05;;;11.10;99.90;;;;;;5081361;28;20098;-54
2020/12/19 07:50:54;;;;;;;58.50;9.15;;;11.10;99.90;;;;;;5084654;28;20648;-51
2020/12/19 07:53:19;;;;;;;31.25;7.15;;;11.10;99.90;;;;;;5085212;28;20067;-52
2020/12/19 07:55:50;;;;;;;27.58;6.50;;;11.10;99.90;;;;;;5088244;28;20079;-53
2020/12/19 07:58:19;;;;;;;38.13;8.25;;;11.20;99.90;;;;;;5087587;28;20644;-52
2020/12/19 08:00:45;;;;;;;45.45;7.10;;;11.10;99.90;;;;;;5086766;28;20398;-53
2020/12/19 08:03:11;;;;;;;48.13;8.75;;;11.20;99.90;;;;;;5083140;28;20042;-51
2020/12/19 08:05:37;;;;;;;48.53;9.02;;;11.20;99.90;;;;;;5081373;28;20462;-53
2020/12/19 08:08:03;;;;;;;46.35;9.02;;;11.20;99.90;;;;;;5086310;28;20042;-52
2020/12/19 08:10:28;;;;;;;43.05;9.50;;;11.20;99.90;;;;;;5088181;28;20080;-51
2020/12/19 08:12:54;;;;;;;45.50;8.55;;;11.20;99.90;;;;;;5080557;28;20056;-51
2020/12/19 08:15:23;;;;;;;49.17;9.45;;;11.20;99.90;;;;;;5088927;28;20111;-50
2020/12/19 08:17:56;;;;;;;41.92;8.20;;;11.20;99.90;;;;;;5084737;28;20745;-51
2020/12/19 08:20:32;;;;;;;48.17;9.30;;;11.20;99.90;;;;;;5080371;28;20032;-52
2020/12/19 08:23:03;;;;;;;47.15;10.40;;;11.20;99.90;;;;;;5073060;28;20052;-51
2020/12/19 08:25:29;;;;;;;56.88;8.88;;;11.30;99.90;;;;;;5086493;28;20039;-52
2020/12/19 08:27:55;;;;;;;48.58;8.50;;;11.30;99.90;;;;;;5085570;28;20101;-51
2020/12/19 08:30:32;;;;;;;51.60;8.43;;;11.30;99.90;;;;;;5086375;28;20454;-49
2020/12/19 08:33:06;;;;;;;51.78;9.43;;;11.40;99.90;;;;;;5080153;28;20534;-51
2020/12/19 08:35:35;;;;;;;51.88;8.10;;;11.40;99.90;;;;;;5076009;28;20062;-52
2020/12/19 08:38:16;;;;;;;41.33;7.78;;;11.40;99.90;;;;;;5081532;28;20028;-49
2020/12/19 08:40:45;;;;;;;36.30;7.45;;;11.40;99.90;;;;;;5086890;28;20059;-50
2020/12/19 08:43:13;;;;;;;42.22;6.43;;;11.50;99.90;;;;;;5086445;28;20170;-50
2020/12/19 08:45:46;;;;;;;27.42;5.95;;;11.50;99.90;;;;;;5086650;28;20066;-50
2020/12/19 08:48:24;;;;;;;48.20;8.57;;;11.50;99.90;;;;;;5079668;28;20490;-49
2020/12/19 08:50:52;;;;;;;33.97;6.63;;;11.50;99.90;;;;;;5072443;28;20075;-53
2020/12/19 08:53:25;;;;;;;37.20;6.50;;;11.50;99.90;;;;;;5077818;28;20089;-51
2020/12/19 08:55:52;;;;;;;40.60;6.32;;;11.60;99.90;;;;;;5074611;28;20370;-50
2020/12/19 08:58:29;;;;;;;27.98;5.75;;;11.60;99.90;;;;;;5081722;28;20417;-51
2020/12/19 09:00:56;;;;;;;32.40;6.82;;;11.70;99.90;;;;;;5088291;28;20110;-49
2020/12/19 09:03:30;;;;;;;23.00;4.82;;;11.70;99.90;;;;;;5077135;28;20028;-49
2020/12/19 09:06:04;;;;;;;30.60;4.63;;;11.80;99.90;;;;;;5085728;28;20474;-50
2020/12/19 09:08:35;;;;;;;27.70;5.25;;;11.80;99.90;;;;;;5079436;28;20032;-49
2020/12/19 09:11:02;;;;;;;18.80;4.57;;;11.70;99.90;;;;;;5087146;28;20027;-50
2020/12/19 09:13:28;;;;;;;27.77;6.13;;;11.80;99.90;;;;;;5080845;28;20024;-49
2020/12/19 09:15:57;;;;;;;35.35;5.35;;;11.80;99.90;;;;;;5087556;28;20062;-49
2020/12/19 09:18:29;;;;;;;27.33;4.63;;;11.80;99.90;;;;;;5076526;28;20090;-50
2020/12/19 09:20:57;;;;;;;37.58;5.55;;;11.80;99.90;;;;;;5067897;28;20111;-49
2020/12/19 09:23:25;;;;;;;22.45;5.28;;;11.80;99.90;;;;;;5067623;28;20059;-49
2020/12/19 09:25:53;;;;;;;32.55;5.53;;;11.70;99.90;;;;;;5068571;28;20047;-51
2020/12/19 09:28:19;;;;;;;21.05;4.60;;;11.80;99.90;;;;;;5067683;28;20039;-50
2020/12/19 09:30:45;;;;;;;25.88;4.45;;;11.80;99.90;;;;;;5067572;28;20718;-51
2020/12/19 09:33:11;;;;;;;28.67;4.22;;;11.80;99.90;;;;;;5067728;28;20039;-51
2020/12/19 09:35:37;;;;;;;25.40;4.40;;;11.80;99.90;;;;;;5067267;28;20079;-48
2020/12/19 09:38:03;;;;;;;18.77;3.70;;;11.80;99.90;;;;;;5067496;28;20462;-48
2020/12/19 09:40:29;;;;;;;22.58;3.95;;;11.80;99.90;;;;;;5067805;28;20702;-49
2020/12/19 09:42:55;;;;;;;24.25;3.72;;;11.90;99.90;;;;;;5066848;28;20513;-49
2020/12/19 09:45:20;;;;;;;30.52;4.72;;;11.80;99.90;;;;;;5067204;28;20120;-48
2020/12/19 09:47:46;;;;;;;28.50;4.57;;;11.90;99.90;;;;;;5067023;28;20066;-48
2020/12/19 09:50:13;;;;;;;32.78;5.45;;;11.90;99.90;;;;;;5066936;28;20029;-49
2020/12/19 09:52:39;;;;;;;23.27;3.88;;;12.00;99.90;;;;;;5066925;28;20035;-49
2020/12/19 09:55:06;;;;;;;25.48;4.40;;;12.00;99.90;;;;;;5066989;28;20394;-49
2020/12/19 09:57:32;;;;;;;25.77;3.97;;;12.10;99.90;;;;;;5067899;28;20032;-48
2020/12/19 09:59:58;;;;;;;24.17;3.90;;;12.00;99.90;;;;;;5067924;28;20028;-48
2020/12/19 10:02:24;;;;;;;31.95;4.57;;;12.00;99.90;;;;;;5067633;28;20028;-49
2020/12/19 10:04:50;;;;;;;25.45;4.15;;;12.00;99.90;;;;;;5067658;28;20024;-50
2020/12/19 10:07:15;;;;;;;26.40;4.05;;;12.00;99.90;;;;;;5066932;28;20119;-49
2020/12/19 10:09:41;;;;;;;29.63;4.80;;;12.00;99.90;;;;;;5066856;28;20112;-49
2020/12/19 10:12:07;;;;;;;38.28;4.18;;;12.00;99.90;;;;;;5066658;28;20036;-50
2020/12/19 10:14:33;;;;;;;22.75;4.65;;;12.00;99.90;;;;;;5066724;28;20043;-50
2020/12/19 10:16:58;;;;;;;32.03;4.95;;;12.00;99.90;;;;;;5067013;28;20049;-50
2020/12/19 10:19:24;;;;;;;32.83;4.93;;;12.10;99.90;;;;;;5066564;28;20025;-50
2020/12/19 10:21:49;;;;;;;30.67;4.03;;;12.20;99.90;;;;;;5067295;28;20463;-49
2020/12/19 10:24:15;;;;;;;32.63;3.97;;;12.30;99.90;;;;;;5067415;28;20431;-49
2020/12/19 10:26:41;;;;;;;27.33;5.00;;;12.30;99.90;;;;;;5052191;28;20508;-49
2020/12/19 10:29:07;;;;;;;25.13;4.35;;;12.20;99.90;;;;;;5067486;28;20750;-46
2020/12/19 10:31:33;;;;;;;23.02;4.22;;;12.20;99.90;;;;;;5069158;28;20081;-48
2020/12/19 10:33:59;;;;;;;29.83;4.57;;;12.20;99.90;;;;;;5067163;28;20025;-48
2020/12/19 10:36:24;;;;;;;27.08;4.53;;;12.20;99.90;;;;;;5067040;28;20048;-48
2020/12/19 10:38:50;;;;;;;31.65;5.13;;;12.20;99.90;;;;;;5067466;28;20044;-50
2020/12/19 10:41:16;;;;;;;29.23;4.28;;;12.30;99.90;;;;;;5067569;28;20041;-49
2020/12/19 10:43:42;;;;;;;25.10;4.70;;;12.30;99.90;;;;;;5067274;28;20490;-48
2020/12/19 10:46:09;;;;;;;32.95;4.70;;;12.40;99.90;;;;;;5067635;28;20652;-48
2020/12/19 10:48:34;;;;;;;25.48;4.28;;;12.50;99.90;;;;;;5071216;28;20029;-49
2020/12/19 10:51:00;;;;;;;29.30;3.80;;;12.50;99.90;;;;;;5070940;28;20077;-48
2020/12/19 10:53:26;;;;;;;23.08;3.67;;;12.50;99.90;;;;;;5070690;28;20036;-48
2020/12/19 10:55:52;;;;;;;25.98;4.60;;;12.60;99.90;;;;;;5070802;28;20028;-49
2020/12/19 10:58:18;;;;;;;24.33;4.10;;;12.60;99.90;;;;;;5070571;28;20115;-48
2020/12/19 11:00:44;;;;;;;29.77;4.90;;;12.60;99.90;;;;;;5070673;28;20115;-48
2020/12/19 11:03:10;;;;;;;20.65;4.10;;;12.60;99.90;;;;;;5070440;28;20546;-49
2020/12/19 11:05:42;;;;;;;29.98;6.25;;;12.60;99.90;;;;;;5070685;28;20060;-48
2020/12/19 11:08:08;;;;;;;39.08;8.65;;;12.60;99.90;;;;;;5070042;28;20115;-49
2020/12/19 11:10:35;;;;;;;44.50;11.40;;;12.60;99.90;;;;;;5070342;28;20028;-48
2020/12/19 11:13:03;;;;;;;34.65;7.38;;;12.60;99.90;;;;;;5069755;28;20530;-48
2020/12/19 11:15:32;;;;;;;32.38;6.47;;;12.60;99.90;;;;;;5069508;28;20111;-48
2020/12/19 11:17:58;;;;;;;36.33;5.80;;;12.50;99.90;;;;;;5069472;28;20106;-48
2020/12/19 11:20:24;;;;;;;22.52;3.42;;;12.60;99.90;;;;;;5070145;28;20562;-48
2020/12/19 11:22:50;;;;;;;28.17;4.20;;;12.60;99.90;;;;;;5070344;28;20061;-50
2020/12/19 11:25:16;;;;;;;30.75;4.82;;;12.50;99.90;;;;;;5070738;28;20044;-47
2020/12/19 11:27:42;;;;;;;38.47;4.53;;;12.40;99.90;;;;;;5070100;28;20082;-47
2020/12/19 11:30:08;;;;;;;35.10;4.90;;;12.30;99.90;;;;;;5052387;28;20465;-47
2020/12/19 11:32:34;;;;;;;30.80;4.57;;;12.20;99.90;;;;;;5070363;28;20029;-47
2020/12/19 11:34:59;;;;;;;25.88;4.40;;;12.00;99.90;;;;;;5069761;28;20040;-48
2020/12/19 11:37:25;;;;;;;34.38;4.60;;;12.00;99.90;;;;;;5069209;28;20146;-49
2020/12/19 11:39:53;;;;;;;35.72;5.38;;;12.00;99.90;;;;;;5069136;28;20094;-47
2020/12/19 11:42:19;;;;;;;29.65;4.47;;;11.90;99.90;;;;;;5069283;28;20120;-47
2020/12/19 11:44:45;;;;;;;28.10;4.60;;;11.90;99.90;;;;;;5051298;28;20028;-47
2020/12/19 11:47:10;;;;;;;34.33;5.47;;;12.00;99.90;;;;;;5069260;28;20064;-47
2020/12/19 11:49:36;;;;;;;45.72;5.10;;;12.10;99.90;;;;;;5069831;28;20041;-48
2020/12/19 11:52:02;;;;;;;29.65;3.92;;;12.30;99.90;;;;;;5070322;28;20028;-48
2020/12/19 11:54:28;;;;;;;27.95;3.95;;;12.50;99.90;;;;;;5069682;28;20028;-47
2020/12/19 11:56:54;;;;;;;26.50;4.18;;;13.00;99.90;;;;;;5069687;28;20082;-50
2020/12/19 11:59:19;;;;;;;22.83;3.40;;;13.20;99.90;;;;;;5068187;28;20036;-48
2020/12/19 12:01:45;;;;;;;20.40;3.00;;;13.40;99.90;;;;;;5085487;28;20683;-48
2020/12/19 12:04:11;;;;;;;26.33;4.35;;;13.50;99.90;;;;;;5086788;28;20110;-48
2020/12/19 12:06:37;;;;;;;32.22;3.55;;;13.60;99.90;;;;;;5081558;28;20093;-46
2020/12/19 12:09:05;;;;;;;40.92;4.57;;;13.40;99.90;;;;;;5073603;28;20794;-48
2020/12/19 12:11:32;;;;;;;37.25;4.65;;;13.30;99.90;;;;;;5068689;28;20043;-47
2020/12/19 12:13:59;;;;;;;33.80;4.15;;;13.40;99.90;;;;;;5068362;28;20036;-47
2020/12/19 12:16:25;;;;;;;43.72;6.82;;;13.10;99.90;;;;;;5086494;28;20097;-48
2020/12/19 12:18:51;;;;;;;29.23;4.43;;;12.80;99.90;;;;;;5078306;28;20032;-47
2020/12/19 12:21:17;;;;;;;36.60;4.80;;;12.50;99.90;;;;;;5076146;28;20109;-46
2020/12/19 12:23:44;;;;;;;34.42;4.38;;;12.60;99.90;;;;;;5081183;28;20056;-46
2020/12/19 12:26:11;;;;;;;40.92;5.10;;;12.90;99.90;;;;;;5083678;28;20115;-47
2020/12/19 12:28:37;;;;;;;35.80;4.57;;;13.10;99.90;;;;;;5085072;28;20089;-47
2020/12/19 12:31:02;;;;;;;39.80;6.82;;;13.40;99.90;;;;;;5083965;28;20043;-47
2020/12/19 12:33:28;;;;;;;46.58;5.25;;;13.70;99.90;;;;;;5085733;28;20067;-47
2020/12/19 12:35:54;;;;;;;40.53;5.30;;;13.60;99.90;;;;;;5064318;28;20126;-49